Time;durP1;ratioP1;P1;durP2;ratioP2;P2;SDS_P1;SDS_P2;PMS_P1;PMS_P2;Temp;Humidity;BMP_temperature;BMP_pressure;BME280_temperature;BME280_humidity;BME280_pressure;Samples;Min_cycle;Max_cycle;Signal;HPM_P1;HPM_P2
2023/04/09 00:01:11;;;;;;;;;56.00;44.50;;;;;4.38;100.00;100195.53;6276382;20;2858663;-59
2023/04/09 00:03:40;;;;;;;;;56.33;45.33;;;;;4.46;100.00;100198.84;6281026;20;2869017;-60
2023/04/09 00:06:12;;;;;;;;;54.00;46.00;;;;;4.34;100.00;100196.53;6313731;20;2856523;-59
2023/04/09 00:08:40;;;;;;;;;59.50;42.00;;;;;4.41;100.00;100195.44;6280899;20;2876330;-60
2023/04/09 00:11:08;;;;;;;;;54.00;43.00;;;;;4.24;100.00;100187.06;6275827;20;2492968;-59
2023/04/09 00:13:37;;;;;;;;;51.00;42.50;;;;;4.20;100.00;100185.41;6277992;20;2859786;-60
2023/04/09 00:16:07;;;;;;;;;56.50;43.00;;;;;4.17;100.00;100187.25;6283833;20;2856762;-59
2023/04/09 00:18:36;;;;;;;;;50.50;44.50;;;;;4.12;100.00;100189.16;6278619;20;2862853;-59
2023/04/09 00:21:07;;;;;;;;;56.50;46.00;;;;;4.14;100.00;100187.31;6280642;20;2860738;-60
2023/04/09 00:23:36;;;;;;;;;51.50;44.00;;;;;4.09;100.00;100181.25;6279505;20;2851401;-60
2023/04/09 00:26:05;;;;;;;;;54.00;43.00;;;;;4.03;100.00;100189.41;6281100;20;2857845;-59
2023/04/09 00:28:34;;;;;;;;;54.00;42.00;;;;;3.80;100.00;100191.81;6278124;20;2492983;-58
2023/04/09 00:31:02;;;;;;;;;57.00;43.50;;;;;3.80;100.00;100189.16;6274548;20;2487742;-59
2023/04/09 00:33:31;;;;;;;;;50.50;40.00;;;;;3.68;100.00;100192.97;6279016;20;2864351;-60
2023/04/09 00:36:00;;;;;;;;;59.00;48.00;;;;;3.39;100.00;100186.59;6282156;20;2858712;-59
2023/04/09 00:38:29;;;;;;;;;53.50;43.50;;;;;3.26;100.00;100196.63;6279406;20;2859672;-60
2023/04/09 00:40:57;;;;;;;;;55.50;44.00;;;;;3.28;100.00;100188.63;6274371;20;2498228;-59
2023/04/09 00:43:27;;;;;;;;;65.67;46.00;;;;;3.39;100.00;100196.34;6280717;20;2884709;-59
2023/04/09 00:45:55;;;;;;;;;58.50;49.50;;;;;3.23;100.00;100194.03;6307739;20;2858636;-60
2023/04/09 00:48:24;;;;;;;;;61.00;48.00;;;;;3.25;100.00;100191.38;6272383;20;2499280;-59
2023/04/09 00:50:53;;;;;;;;;60.00;49.50;;;;;3.25;100.00;100189.56;6274088;20;2871121;-59
2023/04/09 00:53:21;;;;;;;;;53.50;44.00;;;;;3.20;100.00;100199.44;6274716;20;2497289;-59
2023/04/09 00:55:50;;;;;;;;;56.50;47.00;;;;;2.94;100.00;100188.53;6282286;20;2855448;-59
2023/04/09 00:58:18;;;;;;;;;57.50;46.00;;;;;2.71;100.00;100187.25;6277597;20;2860672;-59
2023/04/09 01:00:47;;;;;;;;;61.50;51.00;;;;;2.76;100.00;100188.03;6278900;20;2854492;-59
2023/04/09 01:03:16;;;;;;;;;65.50;51.50;;;;;2.70;100.00;100184.66;6278201;20;2872264;-60
2023/04/09 01:06:10;;;;;;;;;62.67;47.00;;;;;2.80;100.00;100184.41;6280251;20;2890004;-59
2023/04/09 01:09:01;;;;;;;;;62.00;49.33;;;;;2.65;100.00;100179.44;6308070;20;2879583;-59
2023/04/09 01:12:09;;;;;;;;;60.00;46.50;;;;;2.66;100.00;100177.66;6309963;20;2871109;-60
2023/04/09 01:15:08;;;;;;;;;59.00;48.00;;;;;2.72;100.00;100178.41;6276007;20;2855543;-59
2023/04/09 01:17:46;;;;;;;;;59.50;45.00;;;;;2.70;100.00;100176.69;6278203;20;2875311;-59
2023/04/09 01:20:42;;;;;;;;;50.00;43.50;;;;;2.77;100.00;100180.97;6273506;20;2496077;-60
2023/04/09 01:23:46;;;;;;;;;57.00;44.00;;;;;2.78;100.00;100185.34;6273697;20;2489871;-60
2023/04/09 01:26:52;;;;;;;;;56.50;44.50;;;;;2.64;100.00;100185.66;6275519;20;2849384;-59
2023/04/09 01:29:22;;;;;;;;;56.50;46.50;;;;;2.67;100.00;100182.94;6277597;20;2500804;-59
2023/04/09 01:31:52;;;;;;;;;51.00;43.50;;;;;2.64;100.00;100175.06;6273592;20;2498269;-59
2023/04/09 01:34:22;;;;;;;;;61.33;46.67;;;;;2.70;100.00;100184.66;6276687;20;2877388;-60
2023/04/09 01:36:57;;;;;;;;;53.50;43.00;;;;;2.70;100.00;100182.88;6304710;20;2489949;-59
2023/04/09 01:39:27;;;;;;;;;56.00;43.50;;;;;2.66;100.00;100181.19;6276024;20;2869100;-59
2023/04/09 01:41:56;;;;;;;;;56.50;42.50;;;;;2.54;100.00;100181.44;6276681;20;2866977;-59
2023/04/09 01:44:27;;;;;;;;;51.67;39.00;;;;;2.47;100.00;100182.47;6276623;20;2877405;-59
2023/04/09 01:46:58;;;;;;;;;58.00;42.00;;;;;2.51;100.00;100182.38;6309481;20;2868019;-60
2023/04/09 01:49:28;;;;;;;;;48.50;42.50;;;;;2.49;100.00;100183.31;6273749;20;2845954;-59
2023/04/09 01:51:57;;;;;;;;;56.00;46.00;;;;;2.49;100.00;100188.63;6273165;20;2848261;-59
2023/04/09 01:54:26;;;;;;;;;55.50;44.00;;;;;2.40;100.00;100182.59;6274187;20;2852487;-60
2023/04/09 01:56:57;;;;;;;;;59.00;45.00;;;;;2.53;100.00;100187.66;6276516;20;2731511;-59
2023/04/09 01:59:26;;;;;;;;;63.50;48.50;;;;;2.28;100.00;100193.44;6308813;20;2875326;-59
2023/04/09 02:02:05;;;;;;;;;57.00;46.00;;;;;2.32;100.00;100186.31;6280907;20;2860688;-59
2023/04/09 02:04:43;;;;;;;;;60.00;46.50;;;;;2.34;100.00;100188.03;6282449;20;2862746;-59
2023/04/09 02:07:26;;;;;;;;;71.33;54.67;;;;;2.26;100.00;100189.94;6282604;20;3630469;-60
2023/04/09 02:09:58;;;;;;;;;76.33;56.00;;;;;2.53;100.00;100192.97;6312191;20;3647067;-59
2023/04/09 02:12:32;;;;;;;;;68.00;51.33;;;;;2.28;100.00;100187.28;6312363;20;2869291;-59
2023/04/09 02:15:03;;;;;;;;;71.00;54.67;;;;;2.51;100.00;100184.16;6311192;20;2894064;-60
2023/04/09 02:17:32;;;;;;;;;64.50;49.00;;;;;2.53;100.00;100188.53;6313013;20;2866999;-59
2023/04/09 02:20:02;;;;;;;;;72.00;56.67;;;;;2.79;100.00;100192.38;6280279;20;2887923;-59
2023/04/09 02:22:32;;;;;;;;;70.67;55.00;;;;;2.56;100.00;100192.91;6312956;20;2883710;-59
2023/04/09 02:25:01;;;;;;;;;60.67;42.33;;;;;2.91;100.00;100178.00;6313799;20;2871205;-60
2023/04/09 02:27:31;;;;;;;;;67.33;51.00;;;;;2.95;100.00;100188.53;6315287;20;2879540;-60
2023/04/09 02:30:00;;;;;;;;;67.00;53.50;;;;;3.16;100.00;100187.16;6314482;20;2877357;-59
2023/04/09 02:32:29;;;;;;;;;56.00;44.50;;;;;2.99;100.00;100186.66;6282046;20;2866961;-59
2023/04/09 02:34:57;;;;;;;;;63.00;49.00;;;;;3.15;100.00;100181.88;6285659;20;2875313;-60
2023/04/09 02:37:27;;;;;;;;;109.33;94.33;;;;;2.95;100.00;100184.97;6283948;20;3683825;-59
2023/04/09 02:39:57;;;;;;;;;83.00;61.67;;;;;2.89;100.00;100185.13;6281238;20;3653534;-59
2023/04/09 02:42:26;;;;;;;;;66.67;48.67;;;;;3.07;100.00;100184.69;6313336;20;3624245;-59
2023/04/09 02:44:55;;;;;;;;;56.50;46.50;;;;;2.91;100.00;100178.00;6313796;20;2860708;-59
2023/04/09 02:47:25;;;;;;;;;65.00;49.50;;;;;3.10;100.00;100179.31;6282523;20;2862769;-60
2023/04/09 02:49:55;;;;;;;;;66.33;49.33;;;;;3.16;100.00;100184.50;6283255;20;3632537;-60
2023/04/09 02:52:25;;;;;;;;;57.33;45.33;;;;;3.08;100.00;100181.13;6311235;20;2869110;-59
2023/04/09 02:54:53;;;;;;;;;55.00;43.50;;;;;3.09;100.00;100180.25;6307230;20;2508638;-59
2023/04/09 02:57:22;;;;;;;;;54.50;46.00;;;;;3.26;100.00;100174.53;6283215;20;2854880;-60
2023/04/09 02:59:51;;;;;;;;;57.67;40.67;;;;;3.21;100.00;100182.63;6283972;20;3634621;-59
2023/04/09 03:02:20;;;;;;;;;54.50;46.50;;;;;3.29;100.00;100182.41;6315503;20;2862819;-59
2023/04/09 03:04:49;;;;;;;;;61.00;46.00;;;;;3.33;100.00;100180.56;6283363;20;2875263;-60
2023/04/09 03:07:19;;;;;;;;;67.67;51.33;;;;;3.27;100.00;100181.59;6282001;20;3631516;-59
2023/04/09 03:09:48;;;;;;;;;46.50;39.50;;;;;3.26;100.00;100175.38;6314489;20;2858607;-60
2023/04/09 03:12:16;;;;;;;;;54.50;44.00;;;;;3.28;100.00;100178.88;6280836;20;2859685;-59
2023/04/09 03:14:45;;;;;;;;;60.50;46.00;;;;;3.21;100.00;100171.09;6280839;20;2872167;-59
2023/04/09 03:17:14;;;;;;;;;49.00;39.50;;;;;3.34;100.00;100177.00;6281394;20;2844051;-59
2023/04/09 03:19:42;;;;;;;;;49.50;40.00;;;;;3.42;100.00;100173.28;6278469;20;2493034;-59
2023/04/09 03:22:12;;;;;;;;;57.00;44.00;;;;;3.24;100.00;100171.06;6280421;20;2879443;-59
2023/04/09 03:24:40;;;;;;;;;54.50;43.50;;;;;3.15;100.00;100171.25;6313568;20;2857614;-60
2023/04/09 03:27:10;;;;;;;;;58.00;45.00;;;;;3.22;100.00;100171.09;6283222;20;2859711;-59
2023/04/09 03:29:38;;;;;;;;;56.50;43.00;;;;;3.26;100.00;100175.38;6281519;20;2867110;-59
2023/04/09 03:32:06;;;;;;;;;58.00;43.00;;;;;3.22;100.00;100163.13;6286130;20;2500349;-60
2023/04/09 03:34:36;;;;;;;;;59.67;45.67;;;;;3.08;100.00;100168.75;6281530;20;2875290;-59
2023/04/09 03:37:05;;;;;;;;;54.00;43.50;;;;;3.21;100.00;100166.69;6313647;20;2858683;-59
2023/04/09 03:39:32;;;;;;;;;57.00;44.00;;;;;3.22;100.00;100173.75;6280618;20;2500234;-60
2023/04/09 03:42:01;;;;;;;;;57.50;44.00;;;;;3.19;100.00;100172.94;6278995;20;2855612;-58
2023/04/09 03:44:30;;;;;;;;;56.00;45.00;;;;;3.30;100.00;100177.06;6283585;20;2846108;-59
2023/04/09 03:46:59;;;;;;;;;51.00;41.00;;;;;3.32;100.00;100173.50;6281458;20;2738833;-59
2023/04/09 03:49:28;;;;;;;;;39.67;36.33;;;;;3.35;100.00;100178.75;6313404;20;3555526;-59
2023/04/09 03:51:57;;;;;;;;;52.50;43.50;;;;;3.24;100.00;100179.88;6278889;20;2863815;-59
2023/04/09 03:54:29;;;;;;;;;54.00;44.00;;;;;3.30;100.00;100179.72;6278835;20;2855487;-60
2023/04/09 03:56:57;;;;;;;;;50.00;40.50;;;;;3.27;100.00;100181.59;6277644;20;2495097;-59
2023/04/09 03:59:25;;;;;;;;;52.50;43.00;;;;;3.20;100.00;100175.53;6276428;20;2494477;-59
2023/04/09 04:01:54;;;;;;;;;57.00;44.00;;;;;3.30;100.00;100181.53;6280812;20;2855644;-59
2023/04/09 04:04:22;;;;;;;;;56.00;47.00;;;;;3.19;100.00;100179.13;6281139;20;2853397;-60
2023/04/09 04:06:50;;;;;;;;;57.50;45.00;;;;;3.21;100.00;100187.94;6278986;20;2493091;-59
2023/04/09 04:09:19;;;;;;;;;54.00;45.00;;;;;3.22;100.00;100192.31;6280359;20;2867040;-60
2023/04/09 04:11:49;;;;;;;;;60.67;46.00;;;;;3.21;100.00;100190.56;6280018;20;2887994;-59
2023/04/09 04:14:19;;;;;;;;;60.67;48.00;;;;;3.32;100.00;100192.06;6311153;20;2869022;-59
2023/04/09 04:16:46;;;;;;;;;61.50;48.00;;;;;3.33;100.00;100197.38;6307565;20;2494141;-59
2023/04/09 04:19:15;;;;;;;;;61.00;49.50;;;;;3.48;100.00;100196.13;6279425;20;2864862;-58
2023/04/09 04:21:45;;;;;;;;;75.00;58.00;;;;;3.48;100.00;100190.81;6277369;20;3638877;-59
2023/04/09 04:24:14;;;;;;;;;74.67;56.33;;;;;3.23;100.00;100202.00;6309737;20;3631504;-60
2023/04/09 04:26:43;;;;;;;;;66.50;53.00;;;;;3.35;100.00;100197.34;6309421;20;2873230;-59
2023/04/09 04:29:12;;;;;;;;;61.50;46.00;;;;;3.36;100.00;100199.06;6279071;20;2871118;-60
2023/04/09 04:31:42;;;;;;;;;63.00;48.00;;;;;3.40;100.00;100208.72;6275146;20;3625292;-59
2023/04/09 04:34:12;;;;;;;;;59.00;44.33;;;;;3.47;100.00;100199.69;6312007;20;2874249;-59
2023/04/09 04:36:40;;;;;;;;;54.00;44.00;;;;;3.22;100.00;100204.72;6310802;20;2844074;-60
2023/04/09 04:39:09;;;;;;;;;52.00;44.00;;;;;3.41;100.00;100207.78;6280642;20;2854548;-59
2023/04/09 04:41:38;;;;;;;;;52.00;42.00;;;;;3.52;100.00;100208.41;6276523;20;2856579;-60
2023/04/09 04:44:07;;;;;;;;;51.50;42.50;;;;;3.55;100.00;100210.97;6281636;20;2847183;-59
2023/04/09 04:46:35;;;;;;;;;55.50;43.50;;;;;3.59;100.00;100214.44;6282093;20;2859678;-59
2023/04/09 04:49:04;;;;;;;;;55.50;45.50;;;;;3.57;100.00;100213.59;6281034;20;2846177;-59
2023/04/09 04:51:33;;;;;;;;;55.00;44.50;;;;;3.60;100.00;100211.75;6278699;20;2858603;-59
2023/04/09 04:54:03;;;;;;;;;61.33;47.33;;;;;3.57;100.00;100217.13;6278456;20;2881671;-59
2023/04/09 04:56:32;;;;;;;;;60.67;47.00;;;;;3.54;100.00;100214.56;6306945;20;2875390;-59
2023/04/09 04:59:02;;;;;;;;;58.33;46.00;;;;;3.57;100.00;100211.81;6310736;20;2870159;-59
2023/04/09 05:01:32;;;;;;;;;81.00;59.00;;;;;3.64;100.00;100213.44;6307805;20;3650293;-60
2023/04/09 05:04:02;;;;;;;;;78.33;57.67;;;;;3.75;100.00;100218.47;6311368;20;3653414;-60
2023/04/09 05:06:32;;;;;;;;;63.00;49.33;;;;;3.82;100.00;100219.16;6284246;20;2875387;-59
2023/04/09 05:09:01;;;;;;;;;57.00;45.50;;;;;3.86;100.00;100223.50;6310337;20;2855595;-59
2023/04/09 05:11:31;;;;;;;;;66.33;51.67;;;;;3.77;100.00;100224.63;6276299;20;3637794;-59
2023/04/09 05:14:00;;;;;;;;;70.00;55.00;;;;;3.90;100.00;100219.88;6311105;20;2863976;-59
2023/04/09 05:16:30;;;;;;;;;65.67;51.33;;;;;3.96;100.00;100227.66;6307677;20;2875303;-60
2023/04/09 05:19:01;;;;;;;;;60.67;49.00;;;;;4.05;100.00;100224.75;6310164;20;3607603;-61
2023/04/09 05:21:30;;;;;;;;;59.50;47.50;;;;;3.96;100.00;100225.00;6301659;20;2852847;-59
2023/04/09 05:23:59;;;;;;;;;62.00;48.50;;;;;4.05;100.00;100229.22;6278734;20;2867979;-59
2023/04/09 05:26:29;;;;;;;;;66.00;51.33;;;;;4.11;100.00;100232.59;6280284;20;2866992;-60
2023/04/09 05:28:58;;;;;;;;;58.50;47.50;;;;;3.97;100.00;100227.63;6313249;20;2844130;-59
2023/04/09 05:31:28;;;;;;;;;87.67;74.67;;;;;4.04;100.00;100232.78;6275932;20;3654584;-59
2023/04/09 05:33:57;;;;;;;;;81.33;63.33;;;;;4.10;100.00;100238.81;6308397;20;3623170;-60
2023/04/09 05:36:27;;;;;;;;;92.00;73.67;;;;;3.97;100.00;100237.38;6313891;20;3679420;-59
2023/04/09 05:38:57;;;;;;;;;92.33;78.67;;;;;4.23;100.00;100238.47;6286083;20;3662765;-59
2023/04/09 05:41:26;;;;;;;;;97.67;84.33;;;;;4.29;100.00;100244.53;6278986;20;3666937;-59
2023/04/09 05:43:56;;;;;;;;;95.00;86.33;;;;;4.37;100.00;100246.94;6277974;20;3661775;-60
2023/04/09 05:46:29;;;;;;;;;83.33;73.00;;;;;4.32;100.00;100249.75;6280551;20;3650286;-60
2023/04/09 05:48:58;;;;;;;;;79.67;60.33;;;;;4.50;100.00;100253.69;6316545;20;3637778;-59
2023/04/09 05:51:28;;;;;;;;;73.00;55.67;;;;;4.54;100.00;100250.03;6313665;20;2886878;-59
2023/04/09 05:53:58;;;;;;;;;71.00;57.00;;;;;4.67;100.00;100255.00;6310608;20;2866967;-59
2023/04/09 05:56:27;;;;;;;;;71.00;56.33;;;;;4.80;100.00;100245.75;6283737;20;3626295;-60
2023/04/09 05:58:57;;;;;;;;;68.33;54.67;;;;;4.85;100.00;100249.16;6313673;20;3631626;-60
2023/04/09 06:01:26;;;;;;;;;61.50;51.00;;;;;4.88;100.00;100253.53;6312572;20;2866946;-59
2023/04/09 06:03:56;;;;;;;;;66.00;54.00;;;;;4.67;100.00;100250.56;6282594;20;2877634;-60
2023/04/09 06:06:27;;;;;;;;;65.33;53.33;;;;;4.61;100.00;100256.94;6316422;20;3609652;-59
2023/04/09 06:08:55;;;;;;;;;60.00;47.50;;;;;4.43;100.00;100254.78;6316965;20;2851480;-60
2023/04/09 06:11:25;;;;;;;;;58.67;42.00;;;;;4.63;100.00;100259.53;6280219;20;2872175;-59
2023/04/09 06:13:54;;;;;;;;;57.00;45.00;;;;;4.85;100.00;100259.81;6309995;20;2870028;-59
2023/04/09 06:16:22;;;;;;;;;54.50;42.50;;;;;4.73;100.00;100262.81;6281256;20;2499235;-59
2023/04/09 06:18:53;;;;;;;;;48.00;41.50;;;;;4.69;100.00;100270.00;6284656;20;2841996;-59
2023/04/09 06:21:22;;;;;;;;;53.00;43.00;;;;;4.80;100.00;100267.03;6282765;20;2846126;-59
2023/04/09 06:23:52;;;;;;;;;54.00;43.00;;;;;4.73;100.00;100263.69;6282289;20;2859712;-59
2023/04/09 06:26:21;;;;;;;;;55.00;46.00;;;;;5.11;100.00;100272.34;6284218;20;2843051;-58
2023/04/09 06:28:51;;;;;;;;;60.67;45.00;;;;;5.26;100.00;100271.00;6280918;20;2885877;-59
2023/04/09 06:31:20;;;;;;;;;56.67;44.00;;;;;5.15;100.00;100274.00;6310405;20;2865047;-59
2023/04/09 06:33:51;;;;;;;;;58.33;45.00;;;;;5.27;100.00;100267.44;6314213;20;2878636;-59
2023/04/09 06:36:20;;;;;;;;;54.50;45.00;;;;;5.17;100.00;100266.84;6313371;20;2488229;-59
2023/04/09 06:38:49;;;;;;;;;47.50;39.00;;;;;5.00;100.00;100269.13;6286150;20;2873330;-61
2023/04/09 06:41:25;;;;;;;;;51.50;42.00;;;;;5.22;100.00;100274.69;6280722;20;2866945;-60
2023/04/09 06:43:53;;;;;;;;;50.00;41.50;;;;;5.30;100.00;100279.78;6282518;20;2498193;-59
2023/04/09 06:46:21;;;;;;;;;48.50;42.00;;;;;5.23;100.00;100268.44;6279749;20;2496137;-58
2023/04/09 06:48:50;;;;;;;;;55.50;43.50;;;;;5.47;100.00;100275.66;6286408;20;2850334;-59
2023/04/09 06:51:19;;;;;;;;;34.33;32.33;;;;;5.65;100.00;100284.88;6284447;20;3559685;-60
2023/04/09 06:53:48;;;;;;;;;51.00;41.50;;;;;5.61;100.00;100277.00;6282852;20;2858602;-60
2023/04/09 06:56:17;;;;;;;;;43.50;38.00;;;;;5.65;100.00;100282.19;6285287;20;2846212;-60
2023/04/09 06:58:46;;;;;;;;;41.00;36.00;;;;;5.67;100.00;100282.16;6287275;20;2853427;-61
2023/04/09 07:01:16;;;;;;;;;43.50;32.00;;;;;6.05;100.00;100293.41;6285319;20;2874307;-59
2023/04/09 07:03:46;;;;;;;;;43.33;36.00;;;;;5.90;100.00;100289.44;6281395;20;2864893;-59
2023/04/09 07:06:15;;;;;;;;;41.67;35.67;;;;;6.01;100.00;100297.09;6321172;20;3600270;-61
2023/04/09 07:08:44;;;;;;;;;42.50;38.00;;;;;6.33;100.00;100290.69;6281467;20;2487758;-60
2023/04/09 07:11:15;;;;;;;;;34.50;33.00;;;;;6.52;100.00;100288.22;6282580;20;2854436;-59
2023/04/09 07:13:44;;;;;;;;;36.50;35.00;;;;;6.45;100.00;100300.03;6284154;20;2844011;-60
2023/04/09 07:16:13;;;;;;;;;35.00;35.00;;;;;6.38;100.00;100292.25;6283252;20;2850366;-60
2023/04/09 07:18:43;;;;;;;;;39.33;35.67;;;;;6.54;100.00;100297.06;6281373;20;2869256;-59
2023/04/09 07:21:12;;;;;;;;;47.33;34.33;;;;;6.65;100.00;100300.22;6314043;20;3644041;-58
2023/04/09 07:23:42;;;;;;;;;43.00;37.00;;;;;6.39;100.00;100298.44;6316315;20;2872360;-59
2023/04/09 07:26:11;;;;;;;;;56.00;41.50;;;;;6.63;100.00;100299.38;6314817;20;2858709;-60
2023/04/09 07:28:41;;;;;;;;;40.00;35.00;;;;;6.46;100.00;100301.78;6283489;20;2555511;-59
2023/04/09 07:31:11;;;;;;;;;38.67;35.00;;;;;6.47;100.00;100295.53;6283529;20;3612928;-58
2023/04/09 07:33:40;;;;;;;;;49.00;39.50;;;;;6.65;100.00;100299.34;6315202;20;2850440;-60
2023/04/09 07:36:10;;;;;;;;;64.67;51.67;;;;;6.79;100.00;100299.72;6275156;20;3627367;-59
2023/04/09 07:38:39;;;;;;;;;35.33;29.00;;;;;6.65;99.98;100305.53;6317011;20;3594091;-59
2023/04/09 07:41:10;;;;;;;;;38.67;34.67;;;;;6.65;100.00;100305.53;6282597;20;2867986;-59
2023/04/09 07:43:40;;;;;;;;;38.33;34.00;;;;;6.80;100.00;100299.66;6311626;20;3614974;-60
2023/04/09 07:46:10;;;;;;;;;42.33;38.00;;;;;6.96;100.00;100301.78;6314681;20;2858759;-59
2023/04/09 07:48:39;;;;;;;;;38.33;32.00;;;;;6.98;100.00;100305.28;6315853;20;3619032;-59
2023/04/09 07:51:08;;;;;;;;;38.33;34.00;;;;;6.92;99.24;100298.34;6314453;20;3614947;-59
2023/04/09 07:53:37;;;;;;;;;34.00;28.00;;;;;7.15;98.78;100308.16;6281554;20;2856541;-59
2023/04/09 07:56:07;;;;;;;;;36.67;34.33;;;;;7.20;99.29;100313.34;6282581;20;2860798;-60
2023/04/09 07:58:39;;;;;;;;;33.00;31.67;;;;;7.14;97.36;100303.78;6310469;20;3596100;-59
2023/04/09 08:01:08;;;;;;;;;56.50;47.00;;;;;7.42;96.62;100308.03;6281303;20;2857737;-58
2023/04/09 08:03:37;;;;;;;;;41.50;37.00;;;;;7.62;95.63;100312.63;6283414;20;2860699;-58
2023/04/09 08:06:07;;;;;;;;;33.67;29.00;;;;;7.64;93.76;100308.97;6282427;20;2854538;-58
2023/04/09 08:08:36;;;;;;;;;43.33;34.33;;;;;7.46;94.30;100312.34;6318371;20;3597157;-59
2023/04/09 08:11:06;;;;;;;;;58.67;46.67;;;;;7.73;94.86;100317.53;6284042;20;2862859;-56
2023/04/09 08:13:34;;;;;;;;;84.67;73.67;;;;;7.92;95.21;100313.19;6315693;20;3634634;-59
2023/04/09 08:16:03;;;;;;;;;27.00;26.00;;;;;8.14;93.51;100327.44;6286287;20;3582556;-59
2023/04/09 08:18:33;;;;;;;;;55.67;45.67;;;;;8.63;92.38;100326.31;6278298;20;2853547;-59
2023/04/09 08:21:05;;;;;;;;;52.00;38.00;;;;;8.77;90.42;100322.13;6315427;20;3615977;-60
2023/04/09 08:23:33;;;;;;;;;59.00;47.50;;;;;8.64;89.54;100331.63;6281198;20;2851296;-61
2023/04/09 08:26:03;;;;;;;;;83.25;66.75;;;;;8.80;88.60;100334.50;6284862;20;3657658;-60
2023/04/09 08:28:33;;;;;;;;;37.33;33.33;;;;;8.35;88.90;100332.84;6310911;20;2867076;-59
2023/04/09 08:31:02;;;;;;;;;51.50;45.00;;;;;8.73;88.54;100328.53;6299648;20;2850526;-60
2023/04/09 08:33:30;;;;;;;;;26.00;25.00;;;;;9.24;86.96;100331.63;6278654;20;2500451;-59
2023/04/09 08:35:59;;;;;;;;;25.00;25.00;;;;;9.24;86.11;100339.66;6280043;20;2840941;-59
2023/04/09 08:38:31;;;;;;;;;37.00;30.33;;;;;9.59;85.61;100335.34;6281553;20;3613851;-61
2023/04/09 08:41:00;;;;;;;;;34.33;31.00;;;;;9.48;84.74;100336.78;6313155;20;3606568;-59
2023/04/09 08:43:33;;;;;;;;;29.33;29.33;;;;;9.25;82.38;100338.72;6283722;20;3602871;-58
2023/04/09 08:46:23;;;;;;;;;30.67;28.00;;;;;9.18;83.17;100337.25;6312007;20;3602395;-59
2023/04/09 08:48:53;;;;;;;;;30.00;29.00;;;;;8.90;84.30;100341.19;6277357;20;3604460;-60
2023/04/09 08:51:24;;;;;;;;;30.33;25.00;;;;;9.17;84.20;100344.44;6309916;20;3591972;-59
2023/04/09 08:54:01;;;;;;;;;38.33;30.33;;;;;9.52;83.76;100349.13;6278218;20;3626347;-60
2023/04/09 08:56:32;;;;;;;;;29.67;26.00;;;;;9.70;81.51;100342.91;6314896;20;3585818;-59
2023/04/09 08:59:02;;;;;;;;;29.67;29.67;;;;;9.83;82.76;100344.03;6276866;20;2862945;-59
2023/04/09 09:01:32;;;;;;;;;25.00;23.00;;;;;9.82;82.58;100349.47;6309120;20;2838860;-60
2023/04/09 09:04:07;;;;;;;;;34.00;29.00;;;;;10.00;81.00;100351.25;6283325;20;3601327;-60
2023/04/09 09:06:39;;;;;;;;;27.67;26.33;;;;;10.27;80.37;100353.56;6314139;20;3588816;-60
2023/04/09 09:09:15;;;;;;;;;30.33;28.67;;;;;10.53;78.74;100350.47;6276063;20;2862846;-61
2023/04/09 09:11:49;;;;;;;;;30.00;30.00;;;;;10.77;78.46;100352.84;6314660;20;3582765;-60
2023/04/09 09:14:19;;;;;;;;;37.50;34.50;;;;;10.94;78.01;100352.81;6277625;20;2857589;-60
2023/04/09 09:16:57;;;;;;;;;39.67;35.33;;;;;10.44;80.49;100350.94;6274584;20;3608574;-60
2023/04/09 09:19:26;;;;;;;;;39.50;34.50;;;;;10.61;79.36;100354.56;6278678;20;2855608;-60
2023/04/09 09:22:05;;;;;;;;;39.00;34.33;;;;;10.50;78.15;100347.06;6277128;20;2858750;-60
2023/04/09 09:24:49;;;;;;;;;25.00;25.00;;;;;10.56;78.12;100349.44;6309500;20;2850296;-61
2023/04/09 09:27:38;;;;;;;;;30.67;27.00;;;;;10.37;78.95;100351.31;6279447;20;2848193;-61
2023/04/09 09:30:09;;;;;;;;;29.33;26.67;;;;;10.42;79.38;100354.63;6315345;20;3594018;-60
2023/04/09 09:32:38;;;;;;;;;51.33;39.00;;;;;11.08;76.88;100349.41;6281227;20;2867061;-59
2023/04/09 09:35:08;;;;;;;;;34.33;30.00;;;;;10.38;81.17;100340.50;6312207;20;3605456;-60
2023/04/09 09:37:37;;;;;;;;;34.00;31.67;;;;;10.17;78.57;100344.22;6279636;20;3586748;-62
2023/04/09 09:40:08;;;;;;;;;34.33;31.67;;;;;10.35;78.51;100346.03;6311151;20;3617033;-61
2023/04/09 09:42:53;;;;;;;;;31.67;29.67;;;;;10.82;78.61;100340.06;6281922;20;3603431;-61
2023/04/09 09:45:24;;;;;;;;;34.00;28.33;;;;;10.79;76.18;100337.50;6276976;20;3602399;-61
2023/04/09 09:47:53;;;;;;;;;34.33;30.00;;;;;11.44;75.66;100337.63;6314609;20;3596180;-60
2023/04/09 09:50:24;;;;;;;;;37.67;32.00;;;;;10.97;75.36;100333.84;6280714;20;3603502;-63
2023/04/09 09:53:05;;;;;;;;;38.50;31.50;;;;;11.17;78.07;100335.50;6275455;20;2855573;-60
2023/04/09 09:55:42;;;;;;;;;34.33;30.00;;;;;11.33;77.18;100340.03;6279307;20;2870054;-60
2023/04/09 09:58:27;;;;;;;;;38.67;35.67;;;;;11.48;76.36;100336.53;6309869;20;3600401;-61
2023/04/09 10:00:58;;;;;;;;;41.00;33.33;;;;;11.35;76.23;100340.84;6280146;20;2875334;-60
2023/04/09 10:03:31;;;;;;;;;41.00;34.33;;;;;10.77;76.97;100339.41;6311510;20;3606625;-61
2023/04/09 10:06:03;;;;;;;;;35.33;32.00;;;;;10.73;76.40;100343.19;6277479;20;3591949;-60
2023/04/09 10:08:34;;;;;;;;;34.33;32.00;;;;;10.88;77.08;100336.19;6314706;20;3581561;-60
2023/04/09 10:11:06;;;;;;;;;48.50;37.50;;;;;10.68;77.82;100332.69;6274437;20;2862842;-61
2023/04/09 10:13:45;;;;;;;;;31.00;28.33;;;;;10.28;77.55;100344.59;6281448;20;3599208;-61
2023/04/09 10:16:16;;;;;;;;;27.50;23.50;;;;;10.79;77.46;100332.13;6278101;20;2852429;-61
2023/04/09 10:18:46;;;;;;;;;44.67;34.00;;;;;11.06;77.18;100337.88;6278606;20;3612751;-61
2023/04/09 10:21:40;;;;;;;;;39.33;35.33;;;;;11.16;75.93;100327.50;6316877;20;3589838;-61
2023/04/09 10:24:11;;;;;;;;;49.00;39.00;;;;;11.18;76.20;100326.47;6281341;20;2852458;-61
2023/04/09 10:26:45;;;;;;;;;65.00;50.00;;;;;11.65;75.19;100328.38;6282439;20;3634810;-61
2023/04/09 10:29:17;;;;;;;;;32.33;29.00;;;;;11.60;77.07;100330.44;6319331;20;3606471;-60
2023/04/09 10:32:05;;;;;;;;;34.00;29.67;;;;;11.56;75.25;100328.03;6281207;20;3594021;-61
2023/04/09 10:34:41;;;;;;;;;32.33;31.33;;;;;11.49;75.79;100323.94;6285944;20;2846080;-61
2023/04/09 10:37:21;;;;;;;;;38.33;33.00;;;;;11.61;74.34;100331.31;6316323;20;3604418;-65
2023/04/09 10:39:51;;;;;;;;;40.00;34.00;;;;;11.49;76.07;100323.94;6284928;20;2844035;-60
2023/04/09 10:42:33;;;;;;;;;35.00;31.33;;;;;10.90;76.37;100323.50;6283408;20;3607586;-60
2023/04/09 10:45:10;;;;;;;;;42.33;36.67;;;;;11.52;76.15;100330.00;6285659;20;3595082;-60
2023/04/09 10:47:42;;;;;;;;;38.67;34.67;;;;;11.55;74.35;100324.44;6323093;20;3595164;-60
2023/04/09 10:50:26;;;;;;;;;36.67;32.00;;;;;11.57;72.42;100322.56;6284697;20;3596154;-60
2023/04/09 10:52:59;;;;;;;;;39.67;36.33;;;;;12.05;72.33;100317.22;6316138;20;3592021;-60
2023/04/09 10:55:41;;;;;;;;;37.67;34.00;;;;;11.62;71.07;100319.63;6286821;20;3598180;-60
2023/04/09 10:58:11;;;;;;;;;66.00;52.00;;;;;11.51;72.16;100328.28;6284992;20;3624265;-60
2023/04/09 11:00:45;;;;;;;;;44.67;33.33;;;;;10.90;72.05;100326.19;6313622;20;3614889;-61
2023/04/09 11:03:23;;;;;;;;;32.67;30.00;;;;;11.28;73.96;100315.22;6319869;20;3594140;-60
2023/04/09 11:06:10;;;;;;;;;33.67;31.33;;;;;10.68;73.57;100316.56;6283734;20;3606541;-60
2023/04/09 11:08:40;;;;;;;;;41.33;34.00;;;;;10.95;75.04;100318.75;6315534;20;3602322;-60
2023/04/09 11:11:10;;;;;;;;;33.33;30.00;;;;;10.63;74.81;100313.25;6283274;20;3598368;-60
2023/04/09 11:13:41;;;;;;;;;34.33;32.00;;;;;10.78;74.89;100311.59;6319093;20;3579375;-60